<?xml version="1.0" encoding="UTF-8" standalone="no" ?>
<gpx xmlns="http://www.topografix.com/GPX/1/1" xmlns:xsi="http://www.w3.org/2001/XMLSchema-instance" xsi:schemaLocation="http://www.topografix.com/GPX/1/1 http://www.topografix.com/GPX/1/1/gpx.xsd" version="1.1" creator="VisuGPX - https://www.visugpx.com">
  <metadata>
    <name>Etape 3: Saint-Florent-sur-Cher&gt; Selles-sur-Cher</name>
    <desc><![CDATA[tape 3: Saint-Florent-sur-Cher> Selles-sur-Cher
Vendredi 15 juin]]></desc>
  </metadata>
  <trk>
    <name><![CDATA[20180610203831-LJrq6]]></name>
    <trkseg>
      <trkpt lat="47.29334" lon="1.77193">
        <ele>95</ele>
        <time>2018-04-18T10:46:15Z</time>
      </trkpt>
      <trkpt lat="47.29304" lon="1.77196">
        <ele>91</ele>
        <time>2018-04-18T10:46:24Z</time>
      </trkpt>
      <trkpt lat="47.29265" lon="1.77194">
        <ele>90</ele>
        <time>2018-04-18T10:46:57Z</time>
      </trkpt>
      <trkpt lat="47.29267" lon="1.77194">
        <ele>90</ele>
        <time>2018-04-18T10:47:24Z</time>
      </trkpt>
      <trkpt lat="47.2926" lon="1.77192">
        <ele>90</ele>
        <time>2018-04-18T10:47:32Z</time>
      </trkpt>
      <trkpt lat="47.29244" lon="1.77185">
        <ele>87</ele>
        <time>2018-04-18T10:47:42Z</time>
      </trkpt>
      <trkpt lat="47.29227" lon="1.77179">
        <ele>87</ele>
        <time>2018-04-18T10:47:49Z</time>
      </trkpt>
      <trkpt lat="47.29226" lon="1.77171">
        <ele>87</ele>
        <time>2018-04-18T10:47:52Z</time>
      </trkpt>
      <trkpt lat="47.29226" lon="1.77165">
        <ele>87</ele>
        <time>2018-04-18T10:47:54Z</time>
      </trkpt>
      <trkpt lat="47.29226" lon="1.77161">
        <ele>87</ele>
        <time>2018-04-18T10:47:55Z</time>
      </trkpt>
      <trkpt lat="47.29226" lon="1.77155">
        <ele>87</ele>
        <time>2018-04-18T10:47:56Z</time>
      </trkpt>
      <trkpt lat="47.29227" lon="1.77139">
        <ele>87</ele>
        <time>2018-04-18T10:47:59Z</time>
      </trkpt>
      <trkpt lat="47.29228" lon="1.7712">
        <ele>87</ele>
        <time>2018-04-18T10:48:01Z</time>
      </trkpt>
      <trkpt lat="47.2923" lon="1.7709">
        <ele>87</ele>
        <time>2018-04-18T10:48:07Z</time>
      </trkpt>
      <trkpt lat="47.29231" lon="1.77063">
        <ele>87</ele>
        <time>2018-04-18T10:48:12Z</time>
      </trkpt>
      <trkpt lat="47.2924" lon="1.76981">
        <ele>88</ele>
        <time>2018-04-18T10:48:29Z</time>
      </trkpt>
      <trkpt lat="47.29242" lon="1.76945">
        <ele>88</ele>
        <time>2018-04-18T10:49:09Z</time>
      </trkpt>
      <trkpt lat="47.29242" lon="1.76945">
        <ele>88</ele>
        <time>2018-04-18T10:49:13Z</time>
      </trkpt>
      <trkpt lat="47.29243" lon="1.76945">
        <ele>88</ele>
        <time>2018-04-18T10:49:16Z</time>
      </trkpt>
      <trkpt lat="47.29243" lon="1.76945">
        <ele>88</ele>
        <time>2018-04-18T10:49:30Z</time>
      </trkpt>
      <trkpt lat="47.29243" lon="1.76945">
        <ele>88</ele>
        <time>2018-04-18T10:49:33Z</time>
      </trkpt>
      <trkpt lat="47.29243" lon="1.76945">
        <ele>88</ele>
        <time>2018-04-18T10:49:36Z</time>
      </trkpt>
      <trkpt lat="47.29243" lon="1.76945">
        <ele>88</ele>
        <time>2018-04-18T10:49:37Z</time>
      </trkpt>
      <trkpt lat="47.29243" lon="1.76946">
        <ele>88</ele>
        <time>2018-04-18T10:49:55Z</time>
      </trkpt>
      <trkpt lat="47.29243" lon="1.76949">
        <ele>88</ele>
        <time>2018-04-18T10:50:05Z</time>
      </trkpt>
      <trkpt lat="47.29243" lon="1.76949">
        <ele>88</ele>
        <time>2018-04-18T10:50:07Z</time>
      </trkpt>
      <trkpt lat="47.29243" lon="1.76949">
        <ele>88</ele>
        <time>2018-04-18T10:50:10Z</time>
      </trkpt>
      <trkpt lat="47.29243" lon="1.76949">
        <ele>88</ele>
        <time>2018-04-18T10:50:13Z</time>
      </trkpt>
      <trkpt lat="47.29243" lon="1.76948">
        <ele>88</ele>
        <time>2018-04-18T10:50:14Z</time>
      </trkpt>
      <trkpt lat="47.29243" lon="1.76943">
        <ele>88</ele>
        <time>2018-04-18T10:50:17Z</time>
      </trkpt>
      <trkpt lat="47.29243" lon="1.76942">
        <ele>88</ele>
        <time>2018-04-18T10:50:18Z</time>
      </trkpt>
      <trkpt lat="47.29242" lon="1.76941">
        <ele>88</ele>
        <time>2018-04-18T10:50:19Z</time>
      </trkpt>
      <trkpt lat="47.29241" lon="1.76941">
        <ele>88</ele>
        <time>2018-04-18T10:50:20Z</time>
      </trkpt>
      <trkpt lat="47.29235" lon="1.76941">
        <ele>88</ele>
        <time>2018-04-18T10:50:23Z</time>
      </trkpt>
      <trkpt lat="47.2922" lon="1.76944">
        <ele>87</ele>
        <time>2018-04-18T10:50:28Z</time>
      </trkpt>
      <trkpt lat="47.2921" lon="1.76945">
        <ele>87</ele>
        <time>2018-04-18T10:50:31Z</time>
      </trkpt>
      <trkpt lat="47.29155" lon="1.76945">
        <ele>86</ele>
        <time>2018-04-18T10:50:55Z</time>
      </trkpt>
      <trkpt lat="47.29163" lon="1.76887">
        <ele>87</ele>
        <time>2018-04-18T10:51:07Z</time>
      </trkpt>
      <trkpt lat="47.29172" lon="1.76842">
        <ele>87</ele>
        <time>2018-04-18T10:51:19Z</time>
      </trkpt>
      <trkpt lat="47.29187" lon="1.76838">
        <ele>87</ele>
        <time>2018-04-18T10:51:30Z</time>
      </trkpt>
      <trkpt lat="47.29193" lon="1.76824">
        <ele>87</ele>
        <time>2018-04-18T10:51:35Z</time>
      </trkpt>
      <trkpt lat="47.29203" lon="1.76806">
        <ele>87</ele>
        <time>2018-04-18T10:51:41Z</time>
      </trkpt>
      <trkpt lat="47.29206" lon="1.76794">
        <ele>87</ele>
        <time>2018-04-18T10:51:44Z</time>
      </trkpt>
      <trkpt lat="47.29208" lon="1.76784">
        <ele>87</ele>
        <time>2018-04-18T10:51:46Z</time>
      </trkpt>
      <trkpt lat="47.29208" lon="1.7678">
        <ele>87</ele>
        <time>2018-04-18T10:51:47Z</time>
      </trkpt>
      <trkpt lat="47.29209" lon="1.76765">
        <ele>88</ele>
        <time>2018-04-18T10:52:09Z</time>
      </trkpt>
      <trkpt lat="47.29212" lon="1.76743">
        <ele>88</ele>
        <time>2018-04-18T10:52:20Z</time>
      </trkpt>
      <trkpt lat="47.29212" lon="1.76714">
        <ele>88</ele>
        <time>2018-04-18T10:52:27Z</time>
      </trkpt>
      <trkpt lat="47.29211" lon="1.76687">
        <ele>88</ele>
        <time>2018-04-18T10:52:34Z</time>
      </trkpt>
      <trkpt lat="47.29211" lon="1.76683">
        <ele>88</ele>
        <time>2018-04-18T10:52:35Z</time>
      </trkpt>
      <trkpt lat="47.29211" lon="1.7668">
        <ele>88</ele>
        <time>2018-04-18T10:52:36Z</time>
      </trkpt>
      <trkpt lat="47.29211" lon="1.76676">
        <ele>88</ele>
        <time>2018-04-18T10:52:37Z</time>
      </trkpt>
      <trkpt lat="47.2921" lon="1.76661">
        <ele>87</ele>
        <time>2018-04-18T10:52:41Z</time>
      </trkpt>
      <trkpt lat="47.29206" lon="1.76579">
        <ele>86</ele>
        <time>2018-04-18T10:53:03Z</time>
      </trkpt>
      <trkpt lat="47.29205" lon="1.76557">
        <ele>86</ele>
        <time>2018-04-18T10:53:09Z</time>
      </trkpt>
      <trkpt lat="47.29203" lon="1.76524">
        <ele>86</ele>
        <time>2018-04-18T10:53:17Z</time>
      </trkpt>
      <trkpt lat="47.29195" lon="1.76449">
        <ele>87</ele>
        <time>2018-04-18T10:53:36Z</time>
      </trkpt>
      <trkpt lat="47.29188" lon="1.7641">
        <ele>88</ele>
        <time>2018-04-18T10:53:46Z</time>
      </trkpt>
      <trkpt lat="47.29173" lon="1.76331">
        <ele>88</ele>
        <time>2018-04-18T10:54:06Z</time>
      </trkpt>
      <trkpt lat="47.29168" lon="1.76309">
        <ele>88</ele>
        <time>2018-04-18T10:54:11Z</time>
      </trkpt>
      <trkpt lat="47.29156" lon="1.76257">
        <ele>87</ele>
        <time>2018-04-18T10:54:23Z</time>
      </trkpt>
      <trkpt lat="47.29141" lon="1.76189">
        <ele>88</ele>
        <time>2018-04-18T10:54:38Z</time>
      </trkpt>
      <trkpt lat="47.29133" lon="1.76159">
        <ele>90</ele>
        <time>2018-04-18T10:54:46Z</time>
      </trkpt>
      <trkpt lat="47.29114" lon="1.76083">
        <ele>92</ele>
        <time>2018-04-18T10:55:04Z</time>
      </trkpt>
      <trkpt lat="47.2909" lon="1.76011">
        <ele>90</ele>
        <time>2018-04-18T10:55:22Z</time>
      </trkpt>
      <trkpt lat="47.29083" lon="1.75926">
        <ele>89</ele>
        <time>2018-04-18T10:55:38Z</time>
      </trkpt>
      <trkpt lat="47.29074" lon="1.75893">
        <ele>89</ele>
        <time>2018-04-18T10:55:45Z</time>
      </trkpt>
      <trkpt lat="47.29056" lon="1.75817">
        <ele>91</ele>
        <time>2018-04-18T10:56:01Z</time>
      </trkpt>
      <trkpt lat="47.29042" lon="1.75778">
        <ele>90</ele>
        <time>2018-04-18T10:56:10Z</time>
      </trkpt>
      <trkpt lat="47.29037" lon="1.7575">
        <ele>91</ele>
        <time>2018-04-18T10:56:16Z</time>
      </trkpt>
      <trkpt lat="47.29027" lon="1.75671">
        <ele>91</ele>
        <time>2018-04-18T10:56:32Z</time>
      </trkpt>
      <trkpt lat="47.29024" lon="1.75646">
        <ele>91</ele>
        <time>2018-04-18T10:56:37Z</time>
      </trkpt>
      <trkpt lat="47.29014" lon="1.75572">
        <ele>91</ele>
        <time>2018-04-18T10:56:53Z</time>
      </trkpt>
      <trkpt lat="47.29013" lon="1.75567">
        <ele>91</ele>
        <time>2018-04-18T10:56:54Z</time>
      </trkpt>
      <trkpt lat="47.29" lon="1.7549">
        <ele>89</ele>
        <time>2018-04-18T10:57:10Z</time>
      </trkpt>
      <trkpt lat="47.2899" lon="1.75425">
        <ele>88</ele>
        <time>2018-04-18T10:57:24Z</time>
      </trkpt>
      <trkpt lat="47.2898" lon="1.7537">
        <ele>88</ele>
        <time>2018-04-18T10:57:36Z</time>
      </trkpt>
      <trkpt lat="47.28976" lon="1.75343">
        <ele>89</ele>
        <time>2018-04-18T10:57:43Z</time>
      </trkpt>
      <trkpt lat="47.28973" lon="1.7532">
        <ele>89</ele>
        <time>2018-04-18T10:57:52Z</time>
      </trkpt>
      <trkpt lat="47.28973" lon="1.75319">
        <ele>89</ele>
        <time>2018-04-18T10:57:53Z</time>
      </trkpt>
      <trkpt lat="47.28974" lon="1.7532">
        <ele>89</ele>
        <time>2018-04-18T10:58:02Z</time>
      </trkpt>
      <trkpt lat="47.28974" lon="1.75319">
        <ele>89</ele>
        <time>2018-04-18T10:58:09Z</time>
      </trkpt>
      <trkpt lat="47.28973" lon="1.75319">
        <ele>89</ele>
        <time>2018-04-18T10:58:15Z</time>
      </trkpt>
      <trkpt lat="47.28973" lon="1.75321">
        <ele>89</ele>
        <time>2018-04-18T10:58:51Z</time>
      </trkpt>
      <trkpt lat="47.28973" lon="1.75321">
        <ele>89</ele>
        <time>2018-04-18T10:58:52Z</time>
      </trkpt>
      <trkpt lat="47.28973" lon="1.75321">
        <ele>89</ele>
        <time>2018-04-18T10:58:53Z</time>
      </trkpt>
      <trkpt lat="47.28973" lon="1.75321">
        <ele>89</ele>
        <time>2018-04-18T10:58:54Z</time>
      </trkpt>
      <trkpt lat="47.28973" lon="1.75321">
        <ele>89</ele>
        <time>2018-04-18T10:58:55Z</time>
      </trkpt>
      <trkpt lat="47.28973" lon="1.75321">
        <ele>89</ele>
        <time>2018-04-18T10:58:56Z</time>
      </trkpt>
      <trkpt lat="47.28973" lon="1.75321">
        <ele>89</ele>
        <time>2018-04-18T10:58:59Z</time>
      </trkpt>
      <trkpt lat="47.28971" lon="1.75314">
        <ele>89</ele>
        <time>2018-04-18T10:59:25Z</time>
      </trkpt>
      <trkpt lat="47.28966" lon="1.7528">
        <ele>89</ele>
        <time>2018-04-18T10:59:39Z</time>
      </trkpt>
      <trkpt lat="47.28968" lon="1.75279">
        <ele>89</ele>
        <time>2018-04-18T10:59:44Z</time>
      </trkpt>
      <trkpt lat="47.28968" lon="1.7528">
        <ele>89</ele>
        <time>2018-04-18T10:59:46Z</time>
      </trkpt>
      <trkpt lat="47.28967" lon="1.75281">
        <ele>89</ele>
        <time>2018-04-18T10:59:48Z</time>
      </trkpt>
      <trkpt lat="47.28967" lon="1.75281">
        <ele>89</ele>
        <time>2018-04-18T10:59:50Z</time>
      </trkpt>
      <trkpt lat="47.28967" lon="1.75281">
        <ele>89</ele>
        <time>2018-04-18T10:59:53Z</time>
      </trkpt>
      <trkpt lat="47.28967" lon="1.75281">
        <ele>89</ele>
        <time>2018-04-18T10:59:55Z</time>
      </trkpt>
      <trkpt lat="47.28967" lon="1.75281">
        <ele>89</ele>
        <time>2018-04-18T10:59:57Z</time>
      </trkpt>
      <trkpt lat="47.28966" lon="1.75281">
        <ele>89</ele>
        <time>2018-04-18T10:59:59Z</time>
      </trkpt>
      <trkpt lat="47.28966" lon="1.7528">
        <ele>89</ele>
        <time>2018-04-18T11:00:01Z</time>
      </trkpt>
      <trkpt lat="47.28965" lon="1.75272">
        <ele>89</ele>
        <time>2018-04-18T11:00:05Z</time>
      </trkpt>
      <trkpt lat="47.28964" lon="1.75264">
        <ele>89</ele>
        <time>2018-04-18T11:00:08Z</time>
      </trkpt>
      <trkpt lat="47.2896" lon="1.75223">
        <ele>89</ele>
        <time>2018-04-18T11:00:19Z</time>
      </trkpt>
      <trkpt lat="47.28956" lon="1.75203">
        <ele>88</ele>
        <time>2018-04-18T11:00:25Z</time>
      </trkpt>
      <trkpt lat="47.28955" lon="1.75193">
        <ele>88</ele>
        <time>2018-04-18T11:00:28Z</time>
      </trkpt>
      <trkpt lat="47.28954" lon="1.75185">
        <ele>88</ele>
        <time>2018-04-18T11:00:30Z</time>
      </trkpt>
      <trkpt lat="47.28952" lon="1.75178">
        <ele>88</ele>
        <time>2018-04-18T11:00:32Z</time>
      </trkpt>
      <trkpt lat="47.28949" lon="1.75163">
        <ele>89</ele>
        <time>2018-04-18T11:00:36Z</time>
      </trkpt>
      <trkpt lat="47.28944" lon="1.75132">
        <ele>89</ele>
        <time>2018-04-18T11:00:44Z</time>
      </trkpt>
      <trkpt lat="47.28943" lon="1.75125">
        <ele>89</ele>
        <time>2018-04-18T11:00:46Z</time>
      </trkpt>
      <trkpt lat="47.28932" lon="1.75069">
        <ele>90</ele>
        <time>2018-04-18T11:01:02Z</time>
      </trkpt>
      <trkpt lat="47.28931" lon="1.75054">
        <ele>90</ele>
        <time>2018-04-18T11:01:06Z</time>
      </trkpt>
      <trkpt lat="47.28929" lon="1.75045">
        <ele>91</ele>
        <time>2018-04-18T11:01:09Z</time>
      </trkpt>
      <trkpt lat="47.28922" lon="1.7502">
        <ele>90</ele>
        <time>2018-04-18T11:01:17Z</time>
      </trkpt>
      <trkpt lat="47.28918" lon="1.75006">
        <ele>90</ele>
        <time>2018-04-18T11:01:21Z</time>
      </trkpt>
      <trkpt lat="47.28913" lon="1.74989">
        <ele>88</ele>
        <time>2018-04-18T11:01:26Z</time>
      </trkpt>
      <trkpt lat="47.28912" lon="1.74981">
        <ele>88</ele>
        <time>2018-04-18T11:01:28Z</time>
      </trkpt>
      <trkpt lat="47.28912" lon="1.74974">
        <ele>88</ele>
        <time>2018-04-18T11:01:30Z</time>
      </trkpt>
      <trkpt lat="47.28906" lon="1.74935">
        <ele>88</ele>
        <time>2018-04-18T11:01:41Z</time>
      </trkpt>
      <trkpt lat="47.28905" lon="1.74931">
        <ele>88</ele>
        <time>2018-04-18T11:01:42Z</time>
      </trkpt>
      <trkpt lat="47.28899" lon="1.74896">
        <ele>89</ele>
        <time>2018-04-18T11:01:52Z</time>
      </trkpt>
      <trkpt lat="47.28894" lon="1.7486">
        <ele>89</ele>
        <time>2018-04-18T11:02:02Z</time>
      </trkpt>
      <trkpt lat="47.28881" lon="1.74782">
        <ele>90</ele>
        <time>2018-04-18T11:02:23Z</time>
      </trkpt>
      <trkpt lat="47.28878" lon="1.74768">
        <ele>90</ele>
        <time>2018-04-18T11:02:27Z</time>
      </trkpt>
      <trkpt lat="47.28875" lon="1.74749">
        <ele>91</ele>
        <time>2018-04-18T11:02:32Z</time>
      </trkpt>
      <trkpt lat="47.28875" lon="1.74741">
        <ele>91</ele>
        <time>2018-04-18T11:02:34Z</time>
      </trkpt>
      <trkpt lat="47.28868" lon="1.74678">
        <ele>92</ele>
        <time>2018-04-18T11:02:54Z</time>
      </trkpt>
      <trkpt lat="47.28866" lon="1.74661">
        <ele>92</ele>
        <time>2018-04-18T11:03:03Z</time>
      </trkpt>
      <trkpt lat="47.28865" lon="1.74656">
        <ele>92</ele>
        <time>2018-04-18T11:03:07Z</time>
      </trkpt>
      <trkpt lat="47.28863" lon="1.74593">
        <ele>91</ele>
        <time>2018-04-18T11:03:23Z</time>
      </trkpt>
      <trkpt lat="47.28862" lon="1.74589">
        <ele>91</ele>
        <time>2018-04-18T11:03:24Z</time>
      </trkpt>
      <trkpt lat="47.28861" lon="1.74585">
        <ele>91</ele>
        <time>2018-04-18T11:03:25Z</time>
      </trkpt>
      <trkpt lat="47.28852" lon="1.74535">
        <ele>89</ele>
        <time>2018-04-18T11:03:38Z</time>
      </trkpt>
      <trkpt lat="47.28837" lon="1.74479">
        <ele>88</ele>
        <time>2018-04-18T11:03:52Z</time>
      </trkpt>
      <trkpt lat="47.28835" lon="1.74472">
        <ele>88</ele>
        <time>2018-04-18T11:03:54Z</time>
      </trkpt>
      <trkpt lat="47.28834" lon="1.74468">
        <ele>88</ele>
        <time>2018-04-18T11:03:55Z</time>
      </trkpt>
      <trkpt lat="47.28833" lon="1.74465">
        <ele>86</ele>
        <time>2018-04-18T11:03:56Z</time>
      </trkpt>
      <trkpt lat="47.28832" lon="1.74461">
        <ele>86</ele>
        <time>2018-04-18T11:03:57Z</time>
      </trkpt>
      <trkpt lat="47.28828" lon="1.74451">
        <ele>86</ele>
        <time>2018-04-18T11:04:00Z</time>
      </trkpt>
      <trkpt lat="47.28817" lon="1.74421">
        <ele>87</ele>
        <time>2018-04-18T11:04:09Z</time>
      </trkpt>
      <trkpt lat="47.28813" lon="1.74411">
        <ele>88</ele>
        <time>2018-04-18T11:04:12Z</time>
      </trkpt>
      <trkpt lat="47.2881" lon="1.74401">
        <ele>88</ele>
        <time>2018-04-18T11:04:15Z</time>
      </trkpt>
      <trkpt lat="47.28788" lon="1.74344">
        <ele>88</ele>
        <time>2018-04-18T11:04:33Z</time>
      </trkpt>
      <trkpt lat="47.28771" lon="1.74295">
        <ele>90</ele>
        <time>2018-04-18T11:04:48Z</time>
      </trkpt>
      <trkpt lat="47.28763" lon="1.74277">
        <ele>90</ele>
        <time>2018-04-18T11:04:54Z</time>
      </trkpt>
      <trkpt lat="47.28746" lon="1.74233">
        <ele>89</ele>
        <time>2018-04-18T11:05:08Z</time>
      </trkpt>
      <trkpt lat="47.28721" lon="1.7416">
        <ele>91</ele>
        <time>2018-04-18T11:05:30Z</time>
      </trkpt>
      <trkpt lat="47.28713" lon="1.74129">
        <ele>91</ele>
        <time>2018-04-18T11:05:39Z</time>
      </trkpt>
      <trkpt lat="47.28712" lon="1.74122">
        <ele>91</ele>
        <time>2018-04-18T11:05:41Z</time>
      </trkpt>
      <trkpt lat="47.28708" lon="1.74101">
        <ele>91</ele>
        <time>2018-04-18T11:05:47Z</time>
      </trkpt>
      <trkpt lat="47.28705" lon="1.74087">
        <ele>91</ele>
        <time>2018-04-18T11:05:51Z</time>
      </trkpt>
      <trkpt lat="47.28703" lon="1.7408">
        <ele>91</ele>
        <time>2018-04-18T11:05:53Z</time>
      </trkpt>
      <trkpt lat="47.28688" lon="1.74004">
        <ele>90</ele>
        <time>2018-04-18T11:06:15Z</time>
      </trkpt>
      <trkpt lat="47.2867" lon="1.73927">
        <ele>89</ele>
        <time>2018-04-18T11:06:37Z</time>
      </trkpt>
      <trkpt lat="47.28654" lon="1.73849">
        <ele>88</ele>
        <time>2018-04-18T11:07:01Z</time>
      </trkpt>
      <trkpt lat="47.28641" lon="1.73785">
        <ele>88</ele>
        <time>2018-04-18T11:07:19Z</time>
      </trkpt>
      <trkpt lat="47.28638" lon="1.73771">
        <ele>89</ele>
        <time>2018-04-18T11:07:23Z</time>
      </trkpt>
      <trkpt lat="47.2863" lon="1.73742">
        <ele>89</ele>
        <time>2018-04-18T11:08:03Z</time>
      </trkpt>
      <trkpt lat="47.28618" lon="1.73699">
        <ele>89</ele>
        <time>2018-04-18T11:08:19Z</time>
      </trkpt>
      <trkpt lat="47.28618" lon="1.73695">
        <ele>89</ele>
        <time>2018-04-18T11:08:20Z</time>
      </trkpt>
      <trkpt lat="47.28618" lon="1.73692">
        <ele>89</ele>
        <time>2018-04-18T11:08:21Z</time>
      </trkpt>
      <trkpt lat="47.28616" lon="1.73683">
        <ele>89</ele>
        <time>2018-04-18T11:08:23Z</time>
      </trkpt>
      <trkpt lat="47.28612" lon="1.73669">
        <ele>89</ele>
        <time>2018-04-18T11:08:27Z</time>
      </trkpt>
      <trkpt lat="47.28611" lon="1.73666">
        <ele>90</ele>
        <time>2018-04-18T11:08:28Z</time>
      </trkpt>
      <trkpt lat="47.28609" lon="1.73659">
        <ele>90</ele>
        <time>2018-04-18T11:08:30Z</time>
      </trkpt>
      <trkpt lat="47.28607" lon="1.73577">
        <ele>92</ele>
        <time>2018-04-18T11:08:52Z</time>
      </trkpt>
      <trkpt lat="47.28593" lon="1.73509">
        <ele>91</ele>
        <time>2018-04-18T11:09:08Z</time>
      </trkpt>
      <trkpt lat="47.28568" lon="1.73464">
        <ele>88</ele>
        <time>2018-04-18T11:09:21Z</time>
      </trkpt>
      <trkpt lat="47.28555" lon="1.73428">
        <ele>88</ele>
        <time>2018-04-18T11:09:30Z</time>
      </trkpt>
      <trkpt lat="47.28554" lon="1.73418">
        <ele>88</ele>
        <time>2018-04-18T11:09:33Z</time>
      </trkpt>
      <trkpt lat="47.28553" lon="1.73411">
        <ele>89</ele>
        <time>2018-04-18T11:09:35Z</time>
      </trkpt>
      <trkpt lat="47.28548" lon="1.73396">
        <ele>89</ele>
        <time>2018-04-18T11:09:52Z</time>
      </trkpt>
      <trkpt lat="47.28539" lon="1.73314">
        <ele>89</ele>
        <time>2018-04-18T11:10:13Z</time>
      </trkpt>
      <trkpt lat="47.28539" lon="1.73301">
        <ele>89</ele>
        <time>2018-04-18T11:10:15Z</time>
      </trkpt>
      <trkpt lat="47.28558" lon="1.73253">
        <ele>90</ele>
        <time>2018-04-18T11:10:43Z</time>
      </trkpt>
      <trkpt lat="47.28558" lon="1.73255">
        <ele>90</ele>
        <time>2018-04-18T11:10:46Z</time>
      </trkpt>
      <trkpt lat="47.28558" lon="1.73255">
        <ele>90</ele>
        <time>2018-04-18T11:10:47Z</time>
      </trkpt>
      <trkpt lat="47.28558" lon="1.73255">
        <ele>90</ele>
        <time>2018-04-18T11:10:48Z</time>
      </trkpt>
      <trkpt lat="47.28558" lon="1.73256">
        <ele>90</ele>
        <time>2018-04-18T11:10:50Z</time>
      </trkpt>
      <trkpt lat="47.28557" lon="1.73257">
        <ele>90</ele>
        <time>2018-04-18T11:10:54Z</time>
      </trkpt>
      <trkpt lat="47.28565" lon="1.73256">
        <ele>90</ele>
        <time>2018-04-18T11:11:14Z</time>
      </trkpt>
      <trkpt lat="47.28573" lon="1.73254">
        <ele>91</ele>
        <time>2018-04-18T11:11:18Z</time>
      </trkpt>
      <trkpt lat="47.28591" lon="1.73247">
        <ele>92</ele>
        <time>2018-04-18T11:11:27Z</time>
      </trkpt>
      <trkpt lat="47.28592" lon="1.73245">
        <ele>92</ele>
        <time>2018-04-18T11:11:28Z</time>
      </trkpt>
      <trkpt lat="47.28591" lon="1.7324">
        <ele>92</ele>
        <time>2018-04-18T11:11:30Z</time>
      </trkpt>
      <trkpt lat="47.28581" lon="1.73218">
        <ele>90</ele>
        <time>2018-04-18T11:11:37Z</time>
      </trkpt>
      <trkpt lat="47.28574" lon="1.73191">
        <ele>90</ele>
        <time>2018-04-18T11:11:46Z</time>
      </trkpt>
      <trkpt lat="47.28571" lon="1.73174">
        <ele>91</ele>
        <time>2018-04-18T11:11:52Z</time>
      </trkpt>
      <trkpt lat="47.28564" lon="1.7315">
        <ele>92</ele>
        <time>2018-04-18T11:11:59Z</time>
      </trkpt>
      <trkpt lat="47.28558" lon="1.73128">
        <ele>92</ele>
        <time>2018-04-18T11:12:05Z</time>
      </trkpt>
      <trkpt lat="47.28554" lon="1.73107">
        <ele>92</ele>
        <time>2018-04-18T11:12:10Z</time>
      </trkpt>
      <trkpt lat="47.28552" lon="1.73098">
        <ele>92</ele>
        <time>2018-04-18T11:12:12Z</time>
      </trkpt>
      <trkpt lat="47.28532" lon="1.7302">
        <ele>93</ele>
        <time>2018-04-18T11:12:30Z</time>
      </trkpt>
      <trkpt lat="47.28528" lon="1.73002">
        <ele>93</ele>
        <time>2018-04-18T11:12:34Z</time>
      </trkpt>
      <trkpt lat="47.28516" lon="1.72946">
        <ele>94</ele>
        <time>2018-04-18T11:12:47Z</time>
      </trkpt>
      <trkpt lat="47.28511" lon="1.72917">
        <ele>95</ele>
        <time>2018-04-18T11:12:53Z</time>
      </trkpt>
      <trkpt lat="47.28507" lon="1.72881">
        <ele>95</ele>
        <time>2018-04-18T11:13:01Z</time>
      </trkpt>
      <trkpt lat="47.28507" lon="1.72866">
        <ele>95</ele>
        <time>2018-04-18T11:13:09Z</time>
      </trkpt>
      <trkpt lat="47.28501" lon="1.72851">
        <ele>95</ele>
        <time>2018-04-18T11:13:16Z</time>
      </trkpt>
      <trkpt lat="47.28499" lon="1.72845">
        <ele>95</ele>
        <time>2018-04-18T11:13:18Z</time>
      </trkpt>
      <trkpt lat="47.28496" lon="1.72839">
        <ele>95</ele>
        <time>2018-04-18T11:13:20Z</time>
      </trkpt>
      <trkpt lat="47.28495" lon="1.72836">
        <ele>95</ele>
        <time>2018-04-18T11:13:21Z</time>
      </trkpt>
      <trkpt lat="47.28493" lon="1.72831">
        <ele>95</ele>
        <time>2018-04-18T11:13:23Z</time>
      </trkpt>
      <trkpt lat="47.28474" lon="1.72777">
        <ele>94</ele>
        <time>2018-04-18T11:13:42Z</time>
      </trkpt>
      <trkpt lat="47.28445" lon="1.72708">
        <ele>94</ele>
        <time>2018-04-18T11:13:57Z</time>
      </trkpt>
      <trkpt lat="47.2842" lon="1.72638">
        <ele>95</ele>
        <time>2018-04-18T11:14:13Z</time>
      </trkpt>
      <trkpt lat="47.28407" lon="1.72593">
        <ele>93</ele>
        <time>2018-04-18T11:14:23Z</time>
      </trkpt>
      <trkpt lat="47.28387" lon="1.72515">
        <ele>93</ele>
        <time>2018-04-18T11:14:38Z</time>
      </trkpt>
      <trkpt lat="47.28384" lon="1.72499">
        <ele>93</ele>
        <time>2018-04-18T11:14:41Z</time>
      </trkpt>
      <trkpt lat="47.28381" lon="1.72488">
        <ele>93</ele>
        <time>2018-04-18T11:14:43Z</time>
      </trkpt>
      <trkpt lat="47.28378" lon="1.72479">
        <ele>93</ele>
        <time>2018-04-18T11:14:45Z</time>
      </trkpt>
      <trkpt lat="47.28351" lon="1.72409">
        <ele>92</ele>
        <time>2018-04-18T11:15:00Z</time>
      </trkpt>
      <trkpt lat="47.2832" lon="1.72343">
        <ele>90</ele>
        <time>2018-04-18T11:15:14Z</time>
      </trkpt>
      <trkpt lat="47.28302" lon="1.72311">
        <ele>90</ele>
        <time>2018-04-18T11:15:21Z</time>
      </trkpt>
      <trkpt lat="47.28299" lon="1.72306">
        <ele>90</ele>
        <time>2018-04-18T11:15:22Z</time>
      </trkpt>
      <trkpt lat="47.28296" lon="1.723">
        <ele>90</ele>
        <time>2018-04-18T11:15:23Z</time>
      </trkpt>
      <trkpt lat="47.28261" lon="1.72237">
        <ele>89</ele>
        <time>2018-04-18T11:15:37Z</time>
      </trkpt>
      <trkpt lat="47.28253" lon="1.72212">
        <ele>90</ele>
        <time>2018-04-18T11:15:43Z</time>
      </trkpt>
      <trkpt lat="47.28244" lon="1.72187">
        <ele>88</ele>
        <time>2018-04-18T11:15:51Z</time>
      </trkpt>
      <trkpt lat="47.28231" lon="1.72145">
        <ele>89</ele>
        <time>2018-04-18T11:15:59Z</time>
      </trkpt>
      <trkpt lat="47.28218" lon="1.72121">
        <ele>89</ele>
        <time>2018-04-18T11:16:03Z</time>
      </trkpt>
      <trkpt lat="47.28177" lon="1.72066">
        <ele>90</ele>
        <time>2018-04-18T11:16:15Z</time>
      </trkpt>
      <trkpt lat="47.28152" lon="1.72035">
        <ele>89</ele>
        <time>2018-04-18T11:16:22Z</time>
      </trkpt>
      <trkpt lat="47.28109" lon="1.71984">
        <ele>91</ele>
        <time>2018-04-18T11:16:38Z</time>
      </trkpt>
      <trkpt lat="47.28104" lon="1.71978">
        <ele>90</ele>
        <time>2018-04-18T11:16:43Z</time>
      </trkpt>
      <trkpt lat="47.28102" lon="1.71979">
        <ele>90</ele>
        <time>2018-04-18T11:16:51Z</time>
      </trkpt>
      <trkpt lat="47.28073" lon="1.71921">
        <ele>90</ele>
        <time>2018-04-18T11:17:16Z</time>
      </trkpt>
      <trkpt lat="47.2807" lon="1.71917">
        <ele>89</ele>
        <time>2018-04-18T11:17:17Z</time>
      </trkpt>
      <trkpt lat="47.28067" lon="1.71912">
        <ele>91</ele>
        <time>2018-04-18T11:17:18Z</time>
      </trkpt>
      <trkpt lat="47.28053" lon="1.71906">
        <ele>90</ele>
        <time>2018-04-18T11:17:22Z</time>
      </trkpt>
      <trkpt lat="47.28049" lon="1.71905">
        <ele>90</ele>
        <time>2018-04-18T11:17:23Z</time>
      </trkpt>
      <trkpt lat="47.2804" lon="1.71901">
        <ele>90</ele>
        <time>2018-04-18T11:17:25Z</time>
      </trkpt>
      <trkpt lat="47.28023" lon="1.71887">
        <ele>90</ele>
        <time>2018-04-18T11:17:29Z</time>
      </trkpt>
      <trkpt lat="47.28008" lon="1.71867">
        <ele>91</ele>
        <time>2018-04-18T11:17:34Z</time>
      </trkpt>
      <trkpt lat="47.28005" lon="1.71863">
        <ele>91</ele>
        <time>2018-04-18T11:17:35Z</time>
      </trkpt>
      <trkpt lat="47.27996" lon="1.71852">
        <ele>91</ele>
        <time>2018-04-18T11:17:38Z</time>
      </trkpt>
      <trkpt lat="47.27969" lon="1.71814">
        <ele>94</ele>
        <time>2018-04-18T11:17:48Z</time>
      </trkpt>
      <trkpt lat="47.27926" lon="1.71759">
        <ele>95</ele>
        <time>2018-04-18T11:18:02Z</time>
      </trkpt>
      <trkpt lat="47.27898" lon="1.71717">
        <ele>92</ele>
        <time>2018-04-18T11:18:11Z</time>
      </trkpt>
      <trkpt lat="47.2787" lon="1.71678">
        <ele>90</ele>
        <time>2018-04-18T11:18:19Z</time>
      </trkpt>
      <trkpt lat="47.27862" lon="1.71655">
        <ele>90</ele>
        <time>2018-04-18T11:18:25Z</time>
      </trkpt>
      <trkpt lat="47.27868" lon="1.71646">
        <ele>90</ele>
        <time>2018-04-18T11:18:29Z</time>
      </trkpt>
      <trkpt lat="47.27872" lon="1.71643">
        <ele>90</ele>
        <time>2018-04-18T11:18:31Z</time>
      </trkpt>
      <trkpt lat="47.27898" lon="1.71613">
        <ele>91</ele>
        <time>2018-04-18T11:18:47Z</time>
      </trkpt>
      <trkpt lat="47.27903" lon="1.71606">
        <ele>92</ele>
        <time>2018-04-18T11:18:51Z</time>
      </trkpt>
      <trkpt lat="47.27905" lon="1.71602">
        <ele>92</ele>
        <time>2018-04-18T11:18:53Z</time>
      </trkpt>
      <trkpt lat="47.27908" lon="1.71598">
        <ele>92</ele>
        <time>2018-04-18T11:18:55Z</time>
      </trkpt>
      <trkpt lat="47.2791" lon="1.71595">
        <ele>92</ele>
        <time>2018-04-18T11:18:57Z</time>
      </trkpt>
      <trkpt lat="47.27915" lon="1.71588">
        <ele>93</ele>
        <time>2018-04-18T11:19:00Z</time>
      </trkpt>
      <trkpt lat="47.27949" lon="1.71541">
        <ele>94</ele>
        <time>2018-04-18T11:19:17Z</time>
      </trkpt>
      <trkpt lat="47.27987" lon="1.7148">
        <ele>95</ele>
        <time>2018-04-18T11:19:34Z</time>
      </trkpt>
      <trkpt lat="47.27988" lon="1.71471">
        <ele>95</ele>
        <time>2018-04-18T11:19:37Z</time>
      </trkpt>
      <trkpt lat="47.27954" lon="1.7142">
        <ele>96</ele>
        <time>2018-04-18T11:19:50Z</time>
      </trkpt>
      <trkpt lat="47.27913" lon="1.71363">
        <ele>98</ele>
        <time>2018-04-18T11:20:05Z</time>
      </trkpt>
      <trkpt lat="47.2787" lon="1.71313">
        <ele>98</ele>
        <time>2018-04-18T11:20:18Z</time>
      </trkpt>
      <trkpt lat="47.27866" lon="1.7131">
        <ele>98</ele>
        <time>2018-04-18T11:20:19Z</time>
      </trkpt>
      <trkpt lat="47.2784" lon="1.71301">
        <ele>98</ele>
        <time>2018-04-18T11:20:25Z</time>
      </trkpt>
      <trkpt lat="47.27836" lon="1.713">
        <ele>98</ele>
        <time>2018-04-18T11:20:26Z</time>
      </trkpt>
      <trkpt lat="47.27813" lon="1.71282">
        <ele>96</ele>
        <time>2018-04-18T11:20:32Z</time>
      </trkpt>
      <trkpt lat="47.27801" lon="1.71262">
        <ele>96</ele>
        <time>2018-04-18T11:20:36Z</time>
      </trkpt>
      <trkpt lat="47.27781" lon="1.71207">
        <ele>96</ele>
        <time>2018-04-18T11:20:46Z</time>
      </trkpt>
      <trkpt lat="47.27779" lon="1.71201">
        <ele>96</ele>
        <time>2018-04-18T11:20:47Z</time>
      </trkpt>
      <trkpt lat="47.27777" lon="1.71195">
        <ele>96</ele>
        <time>2018-04-18T11:20:48Z</time>
      </trkpt>
      <trkpt lat="47.27775" lon="1.71189">
        <ele>96</ele>
        <time>2018-04-18T11:20:49Z</time>
      </trkpt>
      <trkpt lat="47.27773" lon="1.71184">
        <ele>96</ele>
        <time>2018-04-18T11:20:50Z</time>
      </trkpt>
      <trkpt lat="47.2777" lon="1.71178">
        <ele>96</ele>
        <time>2018-04-18T11:20:51Z</time>
      </trkpt>
      <trkpt lat="47.27747" lon="1.71129">
        <ele>95</ele>
        <time>2018-04-18T11:21:00Z</time>
      </trkpt>
      <trkpt lat="47.27708" lon="1.71073">
        <ele>95</ele>
        <time>2018-04-18T11:21:11Z</time>
      </trkpt>
      <trkpt lat="47.27694" lon="1.71054">
        <ele>95</ele>
        <time>2018-04-18T11:21:15Z</time>
      </trkpt>
      <trkpt lat="47.27678" lon="1.7103">
        <ele>95</ele>
        <time>2018-04-18T11:21:20Z</time>
      </trkpt>
      <trkpt lat="47.27643" lon="1.70967">
        <ele>93</ele>
        <time>2018-04-18T11:21:31Z</time>
      </trkpt>
      <trkpt lat="47.27632" lon="1.70937">
        <ele>93</ele>
        <time>2018-04-18T11:21:36Z</time>
      </trkpt>
      <trkpt lat="47.27627" lon="1.70918">
        <ele>93</ele>
        <time>2018-04-18T11:21:39Z</time>
      </trkpt>
      <trkpt lat="47.27613" lon="1.70854">
        <ele>94</ele>
        <time>2018-04-18T11:21:50Z</time>
      </trkpt>
      <trkpt lat="47.27609" lon="1.70834">
        <ele>94</ele>
        <time>2018-04-18T11:21:53Z</time>
      </trkpt>
      <trkpt lat="47.27593" lon="1.70754">
        <ele>95</ele>
        <time>2018-04-18T11:22:05Z</time>
      </trkpt>
      <trkpt lat="47.27584" lon="1.70694">
        <ele>96</ele>
        <time>2018-04-18T11:22:41Z</time>
      </trkpt>
      <trkpt lat="47.27584" lon="1.70694">
        <ele>96</ele>
        <time>2018-04-18T11:22:42Z</time>
      </trkpt>
      <trkpt lat="47.27584" lon="1.70698">
        <ele>96</ele>
        <time>2018-04-18T11:22:57Z</time>
      </trkpt>
      <trkpt lat="47.27584" lon="1.70698">
        <ele>96</ele>
        <time>2018-04-18T11:23:07Z</time>
      </trkpt>
      <trkpt lat="47.27585" lon="1.70702">
        <ele>96</ele>
        <time>2018-04-18T11:23:10Z</time>
      </trkpt>
      <trkpt lat="47.27586" lon="1.70705">
        <ele>96</ele>
        <time>2018-04-18T11:23:19Z</time>
      </trkpt>
      <trkpt lat="47.27584" lon="1.70702">
        <ele>96</ele>
        <time>2018-04-18T11:23:21Z</time>
      </trkpt>
      <trkpt lat="47.27579" lon="1.70686">
        <ele>96</ele>
        <time>2018-04-18T11:23:27Z</time>
      </trkpt>
      <trkpt lat="47.27575" lon="1.70674">
        <ele>96</ele>
        <time>2018-04-18T11:23:30Z</time>
      </trkpt>
      <trkpt lat="47.27573" lon="1.7067">
        <ele>96</ele>
        <time>2018-04-18T11:23:31Z</time>
      </trkpt>
      <trkpt lat="47.27558" lon="1.70627">
        <ele>96</ele>
        <time>2018-04-18T11:23:39Z</time>
      </trkpt>
      <trkpt lat="47.2755" lon="1.70607">
        <ele>96</ele>
        <time>2018-04-18T11:23:43Z</time>
      </trkpt>
      <trkpt lat="47.27541" lon="1.7058">
        <ele>96</ele>
        <time>2018-04-18T11:23:48Z</time>
      </trkpt>
      <trkpt lat="47.27531" lon="1.70548">
        <ele>95</ele>
        <time>2018-04-18T11:23:54Z</time>
      </trkpt>
      <trkpt lat="47.27526" lon="1.70533">
        <ele>95</ele>
        <time>2018-04-18T11:23:57Z</time>
      </trkpt>
      <trkpt lat="47.27523" lon="1.70522">
        <ele>95</ele>
        <time>2018-04-18T11:23:59Z</time>
      </trkpt>
      <trkpt lat="47.2752" lon="1.70507">
        <ele>95</ele>
        <time>2018-04-18T11:24:06Z</time>
      </trkpt>
      <trkpt lat="47.27521" lon="1.70507">
        <ele>95</ele>
        <time>2018-04-18T11:24:07Z</time>
      </trkpt>
      <trkpt lat="47.27521" lon="1.70507">
        <ele>95</ele>
        <time>2018-04-18T11:24:09Z</time>
      </trkpt>
      <trkpt lat="47.27521" lon="1.70507">
        <ele>95</ele>
        <time>2018-04-18T11:24:10Z</time>
      </trkpt>
      <trkpt lat="47.27521" lon="1.70507">
        <ele>95</ele>
        <time>2018-04-18T11:24:11Z</time>
      </trkpt>
      <trkpt lat="47.27521" lon="1.70507">
        <ele>95</ele>
        <time>2018-04-18T11:24:12Z</time>
      </trkpt>
      <trkpt lat="47.27521" lon="1.70507">
        <ele>95</ele>
        <time>2018-04-18T11:24:13Z</time>
      </trkpt>
      <trkpt lat="47.27521" lon="1.70507">
        <ele>95</ele>
        <time>2018-04-18T11:24:14Z</time>
      </trkpt>
      <trkpt lat="47.27521" lon="1.70507">
        <ele>95</ele>
        <time>2018-04-18T11:24:15Z</time>
      </trkpt>
      <trkpt lat="47.27515" lon="1.70509">
        <ele>95</ele>
        <time>2018-04-18T11:24:24Z</time>
      </trkpt>
      <trkpt lat="47.27504" lon="1.70514">
        <ele>95</ele>
        <time>2018-04-18T11:24:32Z</time>
      </trkpt>
      <trkpt lat="47.27455" lon="1.70529">
        <ele>93</ele>
        <time>2018-04-18T11:24:43Z</time>
      </trkpt>
      <trkpt lat="47.27424" lon="1.70538">
        <ele>93</ele>
        <time>2018-04-18T11:24:48Z</time>
      </trkpt>
      <trkpt lat="47.2737" lon="1.70533">
        <ele>89</ele>
        <time>2018-04-18T11:24:55Z</time>
      </trkpt>
      <trkpt lat="47.27361" lon="1.70531">
        <ele>88</ele>
        <time>2018-04-18T11:24:56Z</time>
      </trkpt>
      <trkpt lat="47.27347" lon="1.70527">
        <ele>88</ele>
        <time>2018-04-18T11:24:58Z</time>
      </trkpt>
      <trkpt lat="47.27341" lon="1.70527">
        <ele>88</ele>
        <time>2018-04-18T11:24:59Z</time>
      </trkpt>
      <trkpt lat="47.27319" lon="1.7053">
        <ele>85</ele>
        <time>2018-04-18T11:25:07Z</time>
      </trkpt>
      <trkpt lat="47.2732" lon="1.7053">
        <ele>85</ele>
        <time>2018-04-18T11:25:13Z</time>
      </trkpt>
      <trkpt lat="47.27299" lon="1.70536">
        <ele>84</ele>
        <time>2018-04-18T11:25:22Z</time>
      </trkpt>
      <trkpt lat="47.27284" lon="1.7053">
        <ele>84</ele>
        <time>2018-04-18T11:25:25Z</time>
      </trkpt>
      <trkpt lat="47.27264" lon="1.70512">
        <ele>83</ele>
        <time>2018-04-18T11:25:44Z</time>
      </trkpt>
      <trkpt lat="47.27212" lon="1.70479">
        <ele>82</ele>
        <time>2018-04-18T11:26:01Z</time>
      </trkpt>
      <trkpt lat="47.2716" lon="1.70447">
        <ele>81</ele>
        <time>2018-04-18T11:26:15Z</time>
      </trkpt>
      <trkpt lat="47.27134" lon="1.70431">
        <ele>81</ele>
        <time>2018-04-18T11:26:22Z</time>
      </trkpt>
      <trkpt lat="47.27127" lon="1.70424">
        <ele>82</ele>
        <time>2018-04-18T11:26:24Z</time>
      </trkpt>
      <trkpt lat="47.27125" lon="1.70419">
        <ele>82</ele>
        <time>2018-04-18T11:26:25Z</time>
      </trkpt>
      <trkpt lat="47.27099" lon="1.70347">
        <ele>83</ele>
        <time>2018-04-18T11:26:39Z</time>
      </trkpt>
      <trkpt lat="47.27074" lon="1.70274">
        <ele>83</ele>
        <time>2018-04-18T11:26:51Z</time>
      </trkpt>
      <trkpt lat="47.2705" lon="1.70199">
        <ele>82</ele>
        <time>2018-04-18T11:27:03Z</time>
      </trkpt>
      <trkpt lat="47.27025" lon="1.70125">
        <ele>82</ele>
        <time>2018-04-18T11:27:15Z</time>
      </trkpt>
      <trkpt lat="47.27003" lon="1.70054">
        <ele>82</ele>
        <time>2018-04-18T11:27:26Z</time>
      </trkpt>
      <trkpt lat="47.27001" lon="1.70047">
        <ele>82</ele>
        <time>2018-04-18T11:27:27Z</time>
      </trkpt>
      <trkpt lat="47.26995" lon="1.70028">
        <ele>82</ele>
        <time>2018-04-18T11:27:30Z</time>
      </trkpt>
      <trkpt lat="47.26993" lon="1.70021">
        <ele>82</ele>
        <time>2018-04-18T11:27:31Z</time>
      </trkpt>
      <trkpt lat="47.26969" lon="1.69945">
        <ele>82</ele>
        <time>2018-04-18T11:27:42Z</time>
      </trkpt>
      <trkpt lat="47.2696" lon="1.69916">
        <ele>82</ele>
        <time>2018-04-18T11:27:46Z</time>
      </trkpt>
      <trkpt lat="47.2695" lon="1.69879">
        <ele>81</ele>
        <time>2018-04-18T11:27:51Z</time>
      </trkpt>
      <trkpt lat="47.26942" lon="1.69857">
        <ele>82</ele>
        <time>2018-04-18T11:27:54Z</time>
      </trkpt>
      <trkpt lat="47.26917" lon="1.69787">
        <ele>81</ele>
        <time>2018-04-18T11:28:04Z</time>
      </trkpt>
      <trkpt lat="47.26908" lon="1.69759">
        <ele>82</ele>
        <time>2018-04-18T11:28:08Z</time>
      </trkpt>
      <trkpt lat="47.26884" lon="1.69688">
        <ele>82</ele>
        <time>2018-04-18T11:28:18Z</time>
      </trkpt>
      <trkpt lat="47.26865" lon="1.69631">
        <ele>82</ele>
        <time>2018-04-18T11:28:26Z</time>
      </trkpt>
      <trkpt lat="47.26856" lon="1.69581">
        <ele>83</ele>
        <time>2018-04-18T11:28:33Z</time>
      </trkpt>
      <trkpt lat="47.26849" lon="1.69536">
        <ele>84</ele>
        <time>2018-04-18T11:28:39Z</time>
      </trkpt>
      <trkpt lat="47.26844" lon="1.69452">
        <ele>85</ele>
        <time>2018-04-18T11:28:50Z</time>
      </trkpt>
      <trkpt lat="47.26844" lon="1.69427">
        <ele>85</ele>
        <time>2018-04-18T11:28:53Z</time>
      </trkpt>
      <trkpt lat="47.26843" lon="1.69406">
        <ele>84</ele>
        <time>2018-04-18T11:28:56Z</time>
      </trkpt>
      <trkpt lat="47.26838" lon="1.69386">
        <ele>84</ele>
        <time>2018-04-18T11:28:59Z</time>
      </trkpt>
      <trkpt lat="47.26831" lon="1.69375">
        <ele>84</ele>
        <time>2018-04-18T11:29:01Z</time>
      </trkpt>
      <trkpt lat="47.2679" lon="1.69321">
        <ele>84</ele>
        <time>2018-04-18T11:29:11Z</time>
      </trkpt>
      <trkpt lat="47.26783" lon="1.69309">
        <ele>84</ele>
        <time>2018-04-18T11:29:13Z</time>
      </trkpt>
      <trkpt lat="47.26768" lon="1.69275">
        <ele>84</ele>
        <time>2018-04-18T11:29:18Z</time>
      </trkpt>
      <trkpt lat="47.26749" lon="1.69216">
        <ele>83</ele>
        <time>2018-04-18T11:29:26Z</time>
      </trkpt>
      <trkpt lat="47.26742" lon="1.69194">
        <ele>83</ele>
        <time>2018-04-18T11:29:29Z</time>
      </trkpt>
      <trkpt lat="47.26724" lon="1.69118">
        <ele>83</ele>
        <time>2018-04-18T11:29:39Z</time>
      </trkpt>
      <trkpt lat="47.26711" lon="1.69034">
        <ele>84</ele>
        <time>2018-04-18T11:29:49Z</time>
      </trkpt>
      <trkpt lat="47.26698" lon="1.68956">
        <ele>84</ele>
        <time>2018-04-18T11:29:58Z</time>
      </trkpt>
      <trkpt lat="47.2668" lon="1.68877">
        <ele>85</ele>
        <time>2018-04-18T11:30:08Z</time>
      </trkpt>
      <trkpt lat="47.26668" lon="1.68835">
        <ele>84</ele>
        <time>2018-04-18T11:30:15Z</time>
      </trkpt>
      <trkpt lat="47.26665" lon="1.68829">
        <ele>84</ele>
        <time>2018-04-18T11:30:16Z</time>
      </trkpt>
      <trkpt lat="47.26656" lon="1.68811">
        <ele>83</ele>
        <time>2018-04-18T11:30:19Z</time>
      </trkpt>
      <trkpt lat="47.26625" lon="1.68753">
        <ele>83</ele>
        <time>2018-04-18T11:30:29Z</time>
      </trkpt>
      <trkpt lat="47.26604" lon="1.68702">
        <ele>83</ele>
        <time>2018-04-18T11:30:37Z</time>
      </trkpt>
      <trkpt lat="47.26595" lon="1.68678">
        <ele>83</ele>
        <time>2018-04-18T11:30:41Z</time>
      </trkpt>
      <trkpt lat="47.2657" lon="1.68606">
        <ele>83</ele>
        <time>2018-04-18T11:30:55Z</time>
      </trkpt>
      <trkpt lat="47.26555" lon="1.6856">
        <ele>83</ele>
        <time>2018-04-18T11:31:03Z</time>
      </trkpt>
      <trkpt lat="47.26532" lon="1.68487">
        <ele>81</ele>
        <time>2018-04-18T11:31:14Z</time>
      </trkpt>
      <trkpt lat="47.26505" lon="1.68416">
        <ele>81</ele>
        <time>2018-04-18T11:31:25Z</time>
      </trkpt>
      <trkpt lat="47.26473" lon="1.68344">
        <ele>80</ele>
        <time>2018-04-18T11:31:37Z</time>
      </trkpt>
      <trkpt lat="47.26442" lon="1.6828">
        <ele>80</ele>
        <time>2018-04-18T11:31:49Z</time>
      </trkpt>
      <trkpt lat="47.26422" lon="1.68214">
        <ele>81</ele>
        <time>2018-04-18T11:32:07Z</time>
      </trkpt>
      <trkpt lat="47.26404" lon="1.68132">
        <ele>81</ele>
        <time>2018-04-18T11:32:19Z</time>
      </trkpt>
      <trkpt lat="47.26392" lon="1.6805">
        <ele>82</ele>
        <time>2018-04-18T11:32:31Z</time>
      </trkpt>
      <trkpt lat="47.26385" lon="1.67966">
        <ele>83</ele>
        <time>2018-04-18T11:32:43Z</time>
      </trkpt>
      <trkpt lat="47.26384" lon="1.67885">
        <ele>83</ele>
        <time>2018-04-18T11:32:54Z</time>
      </trkpt>
      <trkpt lat="47.26381" lon="1.67805">
        <ele>83</ele>
        <time>2018-04-18T11:33:05Z</time>
      </trkpt>
      <trkpt lat="47.26379" lon="1.6773">
        <ele>83</ele>
        <time>2018-04-18T11:33:15Z</time>
      </trkpt>
      <trkpt lat="47.2637" lon="1.67648">
        <ele>81</ele>
        <time>2018-04-18T11:33:26Z</time>
      </trkpt>
      <trkpt lat="47.2636" lon="1.67569">
        <ele>81</ele>
        <time>2018-04-18T11:33:36Z</time>
      </trkpt>
      <trkpt lat="47.26345" lon="1.67493">
        <ele>82</ele>
        <time>2018-04-18T11:33:46Z</time>
      </trkpt>
      <trkpt lat="47.26329" lon="1.67441">
        <ele>82</ele>
        <time>2018-04-18T11:33:53Z</time>
      </trkpt>
      <trkpt lat="47.26317" lon="1.67364">
        <ele>82</ele>
        <time>2018-04-18T11:34:03Z</time>
      </trkpt>
      <trkpt lat="47.26308" lon="1.67283">
        <ele>81</ele>
        <time>2018-04-18T11:34:14Z</time>
      </trkpt>
      <trkpt lat="47.26302" lon="1.67198">
        <ele>81</ele>
        <time>2018-04-18T11:34:25Z</time>
      </trkpt>
      <trkpt lat="47.26302" lon="1.67165">
        <ele>80</ele>
        <time>2018-04-18T11:34:29Z</time>
      </trkpt>
      <trkpt lat="47.26297" lon="1.6708">
        <ele>80</ele>
        <time>2018-04-18T11:34:40Z</time>
      </trkpt>
      <trkpt lat="47.26294" lon="1.67001">
        <ele>80</ele>
        <time>2018-04-18T11:34:50Z</time>
      </trkpt>
      <trkpt lat="47.26293" lon="1.6695">
        <ele>81</ele>
        <time>2018-04-18T11:34:57Z</time>
      </trkpt>
      <trkpt lat="47.26301" lon="1.66892">
        <ele>81</ele>
        <time>2018-04-18T11:35:06Z</time>
      </trkpt>
      <trkpt lat="47.26303" lon="1.66882">
        <ele>81</ele>
        <time>2018-04-18T11:35:08Z</time>
      </trkpt>
      <trkpt lat="47.26305" lon="1.66865">
        <ele>81</ele>
        <time>2018-04-18T11:35:14Z</time>
      </trkpt>
      <trkpt lat="47.26269" lon="1.66873">
        <ele>81</ele>
        <time>2018-04-18T11:35:25Z</time>
      </trkpt>
      <trkpt lat="47.26262" lon="1.66866">
        <ele>81</ele>
        <time>2018-04-18T11:35:27Z</time>
      </trkpt>
      <trkpt lat="47.26258" lon="1.66855">
        <ele>81</ele>
        <time>2018-04-18T11:35:29Z</time>
      </trkpt>
      <trkpt lat="47.26248" lon="1.66804">
        <ele>81</ele>
        <time>2018-04-18T11:35:37Z</time>
      </trkpt>
      <trkpt lat="47.26244" lon="1.66787">
        <ele>81</ele>
        <time>2018-04-18T11:35:40Z</time>
      </trkpt>
      <trkpt lat="47.26242" lon="1.66782">
        <ele>81</ele>
        <time>2018-04-18T11:35:41Z</time>
      </trkpt>
      <trkpt lat="47.26227" lon="1.66705">
        <ele>81</ele>
        <time>2018-04-18T11:35:55Z</time>
      </trkpt>
      <trkpt lat="47.26211" lon="1.66662">
        <ele>81</ele>
        <time>2018-04-18T11:36:03Z</time>
      </trkpt>
      <trkpt lat="47.26206" lon="1.66653">
        <ele>82</ele>
        <time>2018-04-18T11:36:05Z</time>
      </trkpt>
      <trkpt lat="47.26167" lon="1.66593">
        <ele>82</ele>
        <time>2018-04-18T11:36:18Z</time>
      </trkpt>
      <trkpt lat="47.26143" lon="1.66518">
        <ele>82</ele>
        <time>2018-04-18T11:36:30Z</time>
      </trkpt>
      <trkpt lat="47.26138" lon="1.66492">
        <ele>82</ele>
        <time>2018-04-18T11:36:34Z</time>
      </trkpt>
      <trkpt lat="47.26135" lon="1.6648">
        <ele>81</ele>
        <time>2018-04-18T11:36:36Z</time>
      </trkpt>
      <trkpt lat="47.26133" lon="1.66461">
        <ele>81</ele>
        <time>2018-04-18T11:36:39Z</time>
      </trkpt>
      <trkpt lat="47.2613" lon="1.66405">
        <ele>80</ele>
        <time>2018-04-18T11:36:47Z</time>
      </trkpt>
      <trkpt lat="47.26136" lon="1.6636">
        <ele>80</ele>
        <time>2018-04-18T11:36:54Z</time>
      </trkpt>
      <trkpt lat="47.2614" lon="1.66347">
        <ele>80</ele>
        <time>2018-04-18T11:36:56Z</time>
      </trkpt>
      <trkpt lat="47.26147" lon="1.66334">
        <ele>80</ele>
        <time>2018-04-18T11:36:58Z</time>
      </trkpt>
      <trkpt lat="47.26179" lon="1.66266">
        <ele>81</ele>
        <time>2018-04-18T11:37:11Z</time>
      </trkpt>
      <trkpt lat="47.2619" lon="1.66183">
        <ele>82</ele>
        <time>2018-04-18T11:37:25Z</time>
      </trkpt>
      <trkpt lat="47.26188" lon="1.66158">
        <ele>81</ele>
        <time>2018-04-18T11:37:30Z</time>
      </trkpt>
      <trkpt lat="47.26184" lon="1.66138">
        <ele>81</ele>
        <time>2018-04-18T11:37:33Z</time>
      </trkpt>
      <trkpt lat="47.26165" lon="1.66057">
        <ele>78</ele>
        <time>2018-04-18T11:37:45Z</time>
      </trkpt>
      <trkpt lat="47.2616" lon="1.66016">
        <ele>78</ele>
        <time>2018-04-18T11:37:51Z</time>
      </trkpt>
      <trkpt lat="47.26159" lon="1.65997">
        <ele>78</ele>
        <time>2018-04-18T11:37:54Z</time>
      </trkpt>
      <trkpt lat="47.26174" lon="1.6592">
        <ele>79</ele>
        <time>2018-04-18T11:38:06Z</time>
      </trkpt>
      <trkpt lat="47.26176" lon="1.65906">
        <ele>80</ele>
        <time>2018-04-18T11:38:08Z</time>
      </trkpt>
      <trkpt lat="47.26178" lon="1.65892">
        <ele>80</ele>
        <time>2018-04-18T11:38:10Z</time>
      </trkpt>
      <trkpt lat="47.26181" lon="1.65879">
        <ele>80</ele>
        <time>2018-04-18T11:38:12Z</time>
      </trkpt>
      <trkpt lat="47.2619" lon="1.65816">
        <ele>81</ele>
        <time>2018-04-18T11:38:22Z</time>
      </trkpt>
      <trkpt lat="47.26196" lon="1.6578">
        <ele>81</ele>
        <time>2018-04-18T11:38:33Z</time>
      </trkpt>
      <trkpt lat="47.26196" lon="1.65781">
        <ele>81</ele>
        <time>2018-04-18T11:38:57Z</time>
      </trkpt>
      <trkpt lat="47.26196" lon="1.65782">
        <ele>81</ele>
        <time>2018-04-18T11:39:11Z</time>
      </trkpt>
      <trkpt lat="47.26196" lon="1.65782">
        <ele>81</ele>
        <time>2018-04-18T11:39:20Z</time>
      </trkpt>
      <trkpt lat="47.26197" lon="1.65781">
        <ele>81</ele>
        <time>2018-04-18T11:39:29Z</time>
      </trkpt>
      <trkpt lat="47.26198" lon="1.6578">
        <ele>81</ele>
        <time>2018-04-18T11:39:38Z</time>
      </trkpt>
      <trkpt lat="47.26198" lon="1.65779">
        <ele>81</ele>
        <time>2018-04-18T11:39:44Z</time>
      </trkpt>
      <trkpt lat="47.26197" lon="1.6578">
        <ele>81</ele>
        <time>2018-04-18T11:39:57Z</time>
      </trkpt>
      <trkpt lat="47.26197" lon="1.6578">
        <ele>81</ele>
        <time>2018-04-18T11:40:02Z</time>
      </trkpt>
      <trkpt lat="47.26197" lon="1.6578">
        <ele>81</ele>
        <time>2018-04-18T11:40:12Z</time>
      </trkpt>
      <trkpt lat="47.26197" lon="1.65779">
        <ele>81</ele>
        <time>2018-04-18T11:40:40Z</time>
      </trkpt>
      <trkpt lat="47.26197" lon="1.6578">
        <ele>81</ele>
        <time>2018-04-18T11:40:49Z</time>
      </trkpt>
      <trkpt lat="47.26197" lon="1.6578">
        <ele>81</ele>
        <time>2018-04-18T11:40:52Z</time>
      </trkpt>
      <trkpt lat="47.26197" lon="1.6578">
        <ele>81</ele>
        <time>2018-04-18T11:40:53Z</time>
      </trkpt>
      <trkpt lat="47.26197" lon="1.6578">
        <ele>81</ele>
        <time>2018-04-18T11:40:55Z</time>
      </trkpt>
      <trkpt lat="47.26197" lon="1.65779">
        <ele>81</ele>
        <time>2018-04-18T11:40:56Z</time>
      </trkpt>
      <trkpt lat="47.26197" lon="1.65779">
        <ele>81</ele>
        <time>2018-04-18T11:40:57Z</time>
      </trkpt>
      <trkpt lat="47.26197" lon="1.65779">
        <ele>81</ele>
        <time>2018-04-18T11:40:58Z</time>
      </trkpt>
      <trkpt lat="47.26197" lon="1.65777">
        <ele>81</ele>
        <time>2018-04-18T11:40:59Z</time>
      </trkpt>
      <trkpt lat="47.26197" lon="1.65774">
        <ele>81</ele>
        <time>2018-04-18T11:41:00Z</time>
      </trkpt>
      <trkpt lat="47.26196" lon="1.65772">
        <ele>81</ele>
        <time>2018-04-18T11:41:01Z</time>
      </trkpt>
      <trkpt lat="47.26191" lon="1.65766">
        <ele>81</ele>
        <time>2018-04-18T11:41:03Z</time>
      </trkpt>
      <trkpt lat="47.26184" lon="1.65762">
        <ele>81</ele>
        <time>2018-04-18T11:41:05Z</time>
      </trkpt>
      <trkpt lat="47.26176" lon="1.65758">
        <ele>81</ele>
        <time>2018-04-18T11:41:07Z</time>
      </trkpt>
      <trkpt lat="47.26167" lon="1.65754">
        <ele>81</ele>
        <time>2018-04-18T11:41:09Z</time>
      </trkpt>
      <trkpt lat="47.26149" lon="1.65744">
        <ele>81</ele>
        <time>2018-04-18T11:41:13Z</time>
      </trkpt>
      <trkpt lat="47.26135" lon="1.65736">
        <ele>80</ele>
        <time>2018-04-18T11:41:16Z</time>
      </trkpt>
      <trkpt lat="47.26126" lon="1.65732">
        <ele>80</ele>
        <time>2018-04-18T11:41:18Z</time>
      </trkpt>
      <trkpt lat="47.26104" lon="1.65719">
        <ele>80</ele>
        <time>2018-04-18T11:41:24Z</time>
      </trkpt>
      <trkpt lat="47.26096" lon="1.65715">
        <ele>80</ele>
        <time>2018-04-18T11:41:26Z</time>
      </trkpt>
      <trkpt lat="47.26089" lon="1.65711">
        <ele>80</ele>
        <time>2018-04-18T11:41:28Z</time>
      </trkpt>
      <trkpt lat="47.26079" lon="1.65706">
        <ele>80</ele>
        <time>2018-04-18T11:41:31Z</time>
      </trkpt>
      <trkpt lat="47.26062" lon="1.65697">
        <ele>80</ele>
        <time>2018-04-18T11:41:36Z</time>
      </trkpt>
      <trkpt lat="47.26034" lon="1.65682">
        <ele>80</ele>
        <time>2018-04-18T11:41:44Z</time>
      </trkpt>
      <trkpt lat="47.25993" lon="1.6566">
        <ele>80</ele>
        <time>2018-04-18T11:41:55Z</time>
      </trkpt>
      <trkpt lat="47.25983" lon="1.65654">
        <ele>80</ele>
        <time>2018-04-18T11:41:58Z</time>
      </trkpt>
      <trkpt lat="47.25975" lon="1.65649">
        <ele>80</ele>
        <time>2018-04-18T11:42:01Z</time>
      </trkpt>
      <trkpt lat="47.25962" lon="1.65644">
        <ele>80</ele>
        <time>2018-04-18T11:42:28Z</time>
      </trkpt>
      <trkpt lat="47.25957" lon="1.65649">
        <ele>80</ele>
        <time>2018-04-18T11:42:37Z</time>
      </trkpt>
      <trkpt lat="47.25953" lon="1.65683">
        <ele>80</ele>
        <time>2018-04-18T11:42:49Z</time>
      </trkpt>
      <trkpt lat="47.25949" lon="1.6571">
        <ele>80</ele>
        <time>2018-04-18T11:42:55Z</time>
      </trkpt>
      <trkpt lat="47.25948" lon="1.65714">
        <ele>80</ele>
        <time>2018-04-18T11:42:56Z</time>
      </trkpt>
      <trkpt lat="47.25947" lon="1.65722">
        <ele>80</ele>
        <time>2018-04-18T11:42:58Z</time>
      </trkpt>
      <trkpt lat="47.2594" lon="1.65758">
        <ele>80</ele>
        <time>2018-04-18T11:43:05Z</time>
      </trkpt>
      <trkpt lat="47.25934" lon="1.65778">
        <ele>80</ele>
        <time>2018-04-18T11:43:09Z</time>
      </trkpt>
      <trkpt lat="47.2593" lon="1.65792">
        <ele>80</ele>
        <time>2018-04-18T11:43:12Z</time>
      </trkpt>
      <trkpt lat="47.25925" lon="1.6581">
        <ele>79</ele>
        <time>2018-04-18T11:43:16Z</time>
      </trkpt>
      <trkpt lat="47.25921" lon="1.65821">
        <ele>79</ele>
        <time>2018-04-18T11:43:19Z</time>
      </trkpt>
      <trkpt lat="47.25913" lon="1.65838">
        <ele>79</ele>
        <time>2018-04-18T11:43:25Z</time>
      </trkpt>
      <trkpt lat="47.25912" lon="1.65839">
        <ele>79</ele>
        <time>2018-04-18T11:43:26Z</time>
      </trkpt>
      <trkpt lat="47.25912" lon="1.6584">
        <ele>79</ele>
        <time>2018-04-18T11:43:27Z</time>
      </trkpt>
      <trkpt lat="47.25912" lon="1.6584">
        <ele>79</ele>
        <time>2018-04-18T11:43:28Z</time>
      </trkpt>
      <trkpt lat="47.25912" lon="1.6584">
        <ele>79</ele>
        <time>2018-04-18T11:43:29Z</time>
      </trkpt>
      <trkpt lat="47.25911" lon="1.6584">
        <ele>79</ele>
        <time>2018-04-18T11:43:37Z</time>
      </trkpt>
      <trkpt lat="47.25911" lon="1.6584">
        <ele>79</ele>
        <time>2018-04-18T11:43:38Z</time>
      </trkpt>
      <trkpt lat="47.25904" lon="1.6584">
        <ele>79</ele>
        <time>2018-04-18T11:43:46Z</time>
      </trkpt>
      <trkpt lat="47.25905" lon="1.65845">
        <ele>79</ele>
        <time>2018-04-18T11:44:01Z</time>
      </trkpt>
      <trkpt lat="47.25917" lon="1.65834">
        <ele>79</ele>
        <time>2018-04-18T11:44:08Z</time>
      </trkpt>
      <trkpt lat="47.25929" lon="1.65802">
        <ele>79</ele>
        <time>2018-04-18T11:44:16Z</time>
      </trkpt>
      <trkpt lat="47.25935" lon="1.65783">
        <ele>80</ele>
        <time>2018-04-18T11:44:20Z</time>
      </trkpt>
      <trkpt lat="47.25954" lon="1.65702">
        <ele>80</ele>
        <time>2018-04-18T11:44:34Z</time>
      </trkpt>
      <trkpt lat="47.25956" lon="1.65686">
        <ele>80</ele>
        <time>2018-04-18T11:44:37Z</time>
      </trkpt>
      <trkpt lat="47.25961" lon="1.65669">
        <ele>80</ele>
        <time>2018-04-18T11:44:48Z</time>
      </trkpt>
      <trkpt lat="47.25962" lon="1.6567">
        <ele>80</ele>
        <time>2018-04-18T11:44:54Z</time>
      </trkpt>
      <trkpt lat="47.25963" lon="1.6567">
        <ele>80</ele>
        <time>2018-04-18T11:44:56Z</time>
      </trkpt>
      <trkpt lat="47.25962" lon="1.65671">
        <ele>80</ele>
        <time>2018-04-18T11:45:05Z</time>
      </trkpt>
      <trkpt lat="47.25962" lon="1.65671">
        <ele>80</ele>
        <time>2018-04-18T11:45:06Z</time>
      </trkpt>
      <trkpt lat="47.25962" lon="1.65671">
        <ele>80</ele>
        <time>2018-04-18T11:45:07Z</time>
      </trkpt>
      <trkpt lat="47.25962" lon="1.65671">
        <ele>80</ele>
        <time>2018-04-18T11:45:51Z</time>
      </trkpt>
      <trkpt lat="47.25964" lon="1.65673">
        <ele>80</ele>
        <time>2018-04-18T11:45:56Z</time>
      </trkpt>
      <trkpt lat="47.25969" lon="1.65679">
        <ele>80</ele>
        <time>2018-04-18T11:46:01Z</time>
      </trkpt>
      <trkpt lat="47.25972" lon="1.6568">
        <ele>80</ele>
        <time>2018-04-18T11:46:03Z</time>
      </trkpt>
      <trkpt lat="47.25973" lon="1.65681">
        <ele>80</ele>
        <time>2018-04-18T11:46:04Z</time>
      </trkpt>
      <trkpt lat="47.25983" lon="1.65689">
        <ele>80</ele>
        <time>2018-04-18T11:46:11Z</time>
      </trkpt>
      <trkpt lat="47.25985" lon="1.65688">
        <ele>80</ele>
        <time>2018-04-18T11:46:12Z</time>
      </trkpt>
      <trkpt lat="47.25986" lon="1.65687">
        <ele>80</ele>
        <time>2018-04-18T11:46:13Z</time>
      </trkpt>
      <trkpt lat="47.25989" lon="1.65682">
        <ele>81</ele>
        <time>2018-04-18T11:46:16Z</time>
      </trkpt>
      <trkpt lat="47.25993" lon="1.65681">
        <ele>81</ele>
        <time>2018-04-18T11:46:18Z</time>
      </trkpt>
      <trkpt lat="47.25995" lon="1.65682">
        <ele>81</ele>
        <time>2018-04-18T11:46:19Z</time>
      </trkpt>
      <trkpt lat="47.25999" lon="1.6568">
        <ele>81</ele>
        <time>2018-04-18T11:46:21Z</time>
      </trkpt>
      <trkpt lat="47.26009" lon="1.65662">
        <ele>80</ele>
        <time>2018-04-18T11:46:27Z</time>
      </trkpt>
      <trkpt lat="47.26009" lon="1.65656">
        <ele>80</ele>
        <time>2018-04-18T11:46:29Z</time>
      </trkpt>
      <trkpt lat="47.26002" lon="1.65632">
        <ele>80</ele>
        <time>2018-04-18T11:46:36Z</time>
      </trkpt>
      <trkpt lat="47.26001" lon="1.65625">
        <ele>79</ele>
        <time>2018-04-18T11:46:38Z</time>
      </trkpt>
      <trkpt lat="47.25995" lon="1.65594">
        <ele>79</ele>
        <time>2018-04-18T11:46:52Z</time>
      </trkpt>
      <trkpt lat="47.25997" lon="1.65588">
        <ele>78</ele>
        <time>2018-04-18T11:46:55Z</time>
      </trkpt>
      <trkpt lat="47.25997" lon="1.65587">
        <ele>78</ele>
        <time>2018-04-18T11:46:56Z</time>
      </trkpt>
      <trkpt lat="47.25997" lon="1.6558">
        <ele>78</ele>
        <time>2018-04-18T11:47:11Z</time>
      </trkpt>
      <trkpt lat="47.25997" lon="1.6558">
        <ele>78</ele>
        <time>2018-04-18T11:47:18Z</time>
      </trkpt>
      <trkpt lat="47.25998" lon="1.65579">
        <ele>78</ele>
        <time>2018-04-18T11:47:24Z</time>
      </trkpt>
      <trkpt lat="47.25994" lon="1.65578">
        <ele>78</ele>
        <time>2018-04-18T11:47:27Z</time>
      </trkpt>
      <trkpt lat="47.25977" lon="1.65592">
        <ele>79</ele>
        <time>2018-04-18T11:47:37Z</time>
      </trkpt>
      <trkpt lat="47.25976" lon="1.65604">
        <ele>79</ele>
        <time>2018-04-18T11:47:43Z</time>
      </trkpt>
      <trkpt lat="47.25975" lon="1.65609">
        <ele>79</ele>
        <time>2018-04-18T11:47:46Z</time>
      </trkpt>
      <trkpt lat="47.25974" lon="1.65613">
        <ele>79</ele>
        <time>2018-04-18T11:47:56Z</time>
      </trkpt>
      <trkpt lat="47.25971" lon="1.65614">
        <ele>79</ele>
        <time>2018-04-18T11:48:09Z</time>
      </trkpt>
      <trkpt lat="47.25972" lon="1.65614">
        <ele>79</ele>
        <time>2018-04-18T11:48:44Z</time>
      </trkpt>
      <trkpt lat="47.25973" lon="1.65613">
        <ele>79</ele>
        <time>2018-04-18T11:48:47Z</time>
      </trkpt>
      <trkpt lat="47.25973" lon="1.65613">
        <ele>79</ele>
        <time>2018-04-18T11:48:49Z</time>
      </trkpt>
      <trkpt lat="47.25975" lon="1.65613">
        <ele>79</ele>
        <time>2018-04-18T11:49:14Z</time>
      </trkpt>
      <trkpt lat="47.25975" lon="1.65613">
        <ele>79</ele>
        <time>2018-04-18T11:49:15Z</time>
      </trkpt>
      <trkpt lat="47.25976" lon="1.65614">
        <ele>79</ele>
        <time>2018-04-18T11:49:32Z</time>
      </trkpt>
      <trkpt lat="47.25977" lon="1.65612">
        <ele>79</ele>
        <time>2018-04-18T11:49:58Z</time>
      </trkpt>
      <trkpt lat="47.25977" lon="1.65612">
        <ele>79</ele>
        <time>2018-04-18T11:50:02Z</time>
      </trkpt>
      <trkpt lat="47.25978" lon="1.65612">
        <ele>79</ele>
        <time>2018-04-18T11:50:06Z</time>
      </trkpt>
      <trkpt lat="47.25978" lon="1.65612">
        <ele>79</ele>
        <time>2018-04-18T11:50:07Z</time>
      </trkpt>
      <trkpt lat="47.25978" lon="1.65612">
        <ele>79</ele>
        <time>2018-04-18T11:50:08Z</time>
      </trkpt>
      <trkpt lat="47.25978" lon="1.65611">
        <ele>79</ele>
        <time>2018-04-18T11:50:11Z</time>
      </trkpt>
      <trkpt lat="47.25977" lon="1.65611">
        <ele>79</ele>
        <time>2018-04-18T11:50:13Z</time>
      </trkpt>
      <trkpt lat="47.25976" lon="1.6561">
        <ele>79</ele>
        <time>2018-04-18T11:50:15Z</time>
      </trkpt>
      <trkpt lat="47.25975" lon="1.65609">
        <ele>79</ele>
        <time>2018-04-18T11:50:16Z</time>
      </trkpt>
      <trkpt lat="47.25974" lon="1.65609">
        <ele>79</ele>
        <time>2018-04-18T11:50:17Z</time>
      </trkpt>
      <trkpt lat="47.25974" lon="1.65609">
        <ele>79</ele>
        <time>2018-04-18T11:50:18Z</time>
      </trkpt>
      <trkpt lat="47.25973" lon="1.65614">
        <ele>79</ele>
        <time>2018-04-18T11:51:01Z</time>
      </trkpt>
      <trkpt lat="47.25974" lon="1.65615">
        <ele>79</ele>
        <time>2018-04-18T11:51:17Z</time>
      </trkpt>
      <trkpt lat="47.25974" lon="1.65615">
        <ele>79</ele>
        <time>2018-04-18T11:51:18Z</time>
      </trkpt>
      <trkpt lat="47.25974" lon="1.65615">
        <ele>79</ele>
        <time>2018-04-18T11:51:19Z</time>
      </trkpt>
      <trkpt lat="47.25974" lon="1.65614">
        <ele>79</ele>
        <time>2018-04-18T11:51:20Z</time>
      </trkpt>
      <trkpt lat="47.25974" lon="1.65615">
        <ele>79</ele>
        <time>2018-04-18T11:51:21Z</time>
      </trkpt>
      <trkpt lat="47.25974" lon="1.65615">
        <ele>79</ele>
        <time>2018-04-18T11:51:23Z</time>
      </trkpt>
      <trkpt lat="47.25974" lon="1.65615">
        <ele>79</ele>
        <time>2018-04-18T11:51:24Z</time>
      </trkpt>
      <trkpt lat="47.25974" lon="1.65615">
        <ele>79</ele>
        <time>2018-04-18T11:51:25Z</time>
      </trkpt>
      <trkpt lat="47.25974" lon="1.65615">
        <ele>79</ele>
        <time>2018-04-18T11:51:33Z</time>
      </trkpt>
      <trkpt lat="47.25974" lon="1.65615">
        <ele>79</ele>
        <time>2018-04-18T11:51:35Z</time>
      </trkpt>
      <trkpt lat="47.25975" lon="1.65615">
        <ele>79</ele>
        <time>2018-04-18T11:51:52Z</time>
      </trkpt>
      <trkpt lat="47.25974" lon="1.65615">
        <ele>79</ele>
        <time>2018-04-18T11:51:54Z</time>
      </trkpt>
      <trkpt lat="47.25974" lon="1.65614">
        <ele>79</ele>
        <time>2018-04-18T11:52:00Z</time>
      </trkpt>
      <trkpt lat="47.25974" lon="1.65614">
        <ele>79</ele>
        <time>2018-04-18T11:52:02Z</time>
      </trkpt>
      <trkpt lat="47.25974" lon="1.65615">
        <ele>79</ele>
        <time>2018-04-18T11:52:04Z</time>
      </trkpt>
      <trkpt lat="47.25974" lon="1.65615">
        <ele>79</ele>
        <time>2018-04-18T11:52:06Z</time>
      </trkpt>
      <trkpt lat="47.25973" lon="1.65615">
        <ele>79</ele>
        <time>2018-04-18T11:52:09Z</time>
      </trkpt>
      <trkpt lat="47.25973" lon="1.65615">
        <ele>79</ele>
        <time>2018-04-18T11:52:11Z</time>
      </trkpt>
      <trkpt lat="47.25973" lon="1.65615">
        <ele>79</ele>
        <time>2018-04-18T11:52:12Z</time>
      </trkpt>
      <trkpt lat="47.25973" lon="1.65615">
        <ele>79</ele>
        <time>2018-04-18T11:52:13Z</time>
      </trkpt>
      <trkpt lat="47.25973" lon="1.65616">
        <ele>79</ele>
        <time>2018-04-18T11:52:18Z</time>
      </trkpt>
      <trkpt lat="47.25974" lon="1.65615">
        <ele>79</ele>
        <time>2018-04-18T11:52:32Z</time>
      </trkpt>
      <trkpt lat="47.25974" lon="1.65615">
        <ele>79</ele>
        <time>2018-04-18T11:52:33Z</time>
      </trkpt>
      <trkpt lat="47.25974" lon="1.65615">
        <ele>79</ele>
        <time>2018-04-18T11:52:34Z</time>
      </trkpt>
      <trkpt lat="47.25975" lon="1.65615">
        <ele>79</ele>
        <time>2018-04-18T11:52:35Z</time>
      </trkpt>
      <trkpt lat="47.25975" lon="1.65614">
        <ele>79</ele>
        <time>2018-04-18T11:52:43Z</time>
      </trkpt>
      <trkpt lat="47.25975" lon="1.65614">
        <ele>79</ele>
        <time>2018-04-18T11:52:46Z</time>
      </trkpt>
      <trkpt lat="47.25975" lon="1.65615">
        <ele>79</ele>
        <time>2018-04-18T11:52:51Z</time>
      </trkpt>
      <trkpt lat="47.25975" lon="1.65615">
        <ele>79</ele>
        <time>2018-04-18T11:52:54Z</time>
      </trkpt>
      <trkpt lat="47.25975" lon="1.65615">
        <ele>79</ele>
        <time>2018-04-18T11:52:55Z</time>
      </trkpt>
      <trkpt lat="47.25975" lon="1.65615">
        <ele>79</ele>
        <time>2018-04-18T11:52:56Z</time>
      </trkpt>
      <trkpt lat="47.25974" lon="1.65615">
        <ele>79</ele>
        <time>2018-04-18T11:53:22Z</time>
      </trkpt>
      <trkpt lat="47.25974" lon="1.65615">
        <ele>79</ele>
        <time>2018-04-18T11:53:27Z</time>
      </trkpt>
      <trkpt lat="47.25976" lon="1.65617">
        <ele>79</ele>
        <time>2018-04-18T11:53:55Z</time>
      </trkpt>
      <trkpt lat="47.25976" lon="1.65618">
        <ele>79</ele>
        <time>2018-04-18T11:54:06Z</time>
      </trkpt>
      <trkpt lat="47.25977" lon="1.65618">
        <ele>79</ele>
        <time>2018-04-18T11:54:13Z</time>
      </trkpt>
      <trkpt lat="47.25978" lon="1.65618">
        <ele>79</ele>
        <time>2018-04-18T11:54:17Z</time>
      </trkpt>
      <trkpt lat="47.25977" lon="1.65618">
        <ele>79</ele>
        <time>2018-04-18T11:54:19Z</time>
      </trkpt>
      <trkpt lat="47.25977" lon="1.65618">
        <ele>79</ele>
        <time>2018-04-18T11:54:24Z</time>
      </trkpt>
      <trkpt lat="47.25977" lon="1.65618">
        <ele>79</ele>
        <time>2018-04-18T11:54:26Z</time>
      </trkpt>
      <trkpt lat="47.25978" lon="1.65618">
        <ele>79</ele>
        <time>2018-04-18T11:54:27Z</time>
      </trkpt>
      <trkpt lat="47.25977" lon="1.65617">
        <ele>79</ele>
        <time>2018-04-18T11:54:37Z</time>
      </trkpt>
      <trkpt lat="47.25977" lon="1.65617">
        <ele>79</ele>
        <time>2018-04-18T11:54:38Z</time>
      </trkpt>
      <trkpt lat="47.25977" lon="1.65617">
        <ele>79</ele>
        <time>2018-04-18T11:54:40Z</time>
      </trkpt>
      <trkpt lat="47.25977" lon="1.65617">
        <ele>79</ele>
        <time>2018-04-18T11:54:44Z</time>
      </trkpt>
      <trkpt lat="47.25977" lon="1.65617">
        <ele>79</ele>
        <time>2018-04-18T11:54:50Z</time>
      </trkpt>
      <trkpt lat="47.25976" lon="1.65618">
        <ele>79</ele>
        <time>2018-04-18T11:54:53Z</time>
      </trkpt>
      <trkpt lat="47.25976" lon="1.65619">
        <ele>79</ele>
        <time>2018-04-18T11:54:58Z</time>
      </trkpt>
      <trkpt lat="47.25977" lon="1.65622">
        <ele>79</ele>
        <time>2018-04-18T11:55:28Z</time>
      </trkpt>
      <trkpt lat="47.25977" lon="1.65622">
        <ele>79</ele>
        <time>2018-04-18T11:55:41Z</time>
      </trkpt>
      <trkpt lat="47.25979" lon="1.65619">
        <ele>79</ele>
        <time>2018-04-18T11:55:56Z</time>
      </trkpt>
      <trkpt lat="47.25977" lon="1.65618">
        <ele>79</ele>
        <time>2018-04-18T11:55:59Z</time>
      </trkpt>
      <trkpt lat="47.25976" lon="1.65617">
        <ele>79</ele>
        <time>2018-04-18T11:56:00Z</time>
      </trkpt>
      <trkpt lat="47.25977" lon="1.65617">
        <ele>79</ele>
        <time>2018-04-18T11:56:02Z</time>
      </trkpt>
      <trkpt lat="47.25977" lon="1.65617">
        <ele>79</ele>
        <time>2018-04-18T11:56:05Z</time>
      </trkpt>
      <trkpt lat="47.25977" lon="1.65615">
        <ele>79</ele>
        <time>2018-04-18T11:56:13Z</time>
      </trkpt>
      <trkpt lat="47.25977" lon="1.65615">
        <ele>79</ele>
        <time>2018-04-18T11:56:14Z</time>
      </trkpt>
      <trkpt lat="47.25977" lon="1.65614">
        <ele>79</ele>
        <time>2018-04-18T11:56:15Z</time>
      </trkpt>
      <trkpt lat="47.25977" lon="1.65614">
        <ele>79</ele>
        <time>2018-04-18T11:56:17Z</time>
      </trkpt>
      <trkpt lat="47.25977" lon="1.65614">
        <ele>79</ele>
        <time>2018-04-18T11:56:18Z</time>
      </trkpt>
      <trkpt lat="47.25977" lon="1.65614">
        <ele>79</ele>
        <time>2018-04-18T11:56:21Z</time>
      </trkpt>
      <trkpt lat="47.25978" lon="1.65605">
        <ele>79</ele>
        <time>2018-04-18T11:56:35Z</time>
      </trkpt>
      <trkpt lat="47.25979" lon="1.65603">
        <ele>79</ele>
        <time>2018-04-18T11:56:36Z</time>
      </trkpt>
      <trkpt lat="47.25987" lon="1.65581">
        <ele>79</ele>
        <time>2018-04-18T11:56:45Z</time>
      </trkpt>
      <trkpt lat="47.25999" lon="1.65579">
        <ele>78</ele>
        <time>2018-04-18T11:56:52Z</time>
      </trkpt>
      <trkpt lat="47.26" lon="1.65571">
        <ele>79</ele>
        <time>2018-04-18T11:56:56Z</time>
      </trkpt>
      <trkpt lat="47.26001" lon="1.65568">
        <ele>78</ele>
        <time>2018-04-18T11:56:57Z</time>
      </trkpt>
      <trkpt lat="47.26001" lon="1.65565">
        <ele>78</ele>
        <time>2018-04-18T11:56:58Z</time>
      </trkpt>
      <trkpt lat="47.26005" lon="1.65485">
        <ele>79</ele>
        <time>2018-04-18T11:57:19Z</time>
      </trkpt>
      <trkpt lat="47.26006" lon="1.65463">
        <ele>79</ele>
        <time>2018-04-18T11:57:25Z</time>
      </trkpt>
      <trkpt lat="47.26006" lon="1.65442">
        <ele>80</ele>
        <time>2018-04-18T11:57:34Z</time>
      </trkpt>
      <trkpt lat="47.25968" lon="1.65424">
        <ele>80</ele>
        <time>2018-04-18T11:57:52Z</time>
      </trkpt>
      <trkpt lat="47.25984" lon="1.65347">
        <ele>79</ele>
        <time>2018-04-18T11:58:12Z</time>
      </trkpt>
      <trkpt lat="47.26" lon="1.65266">
        <ele>80</ele>
        <time>2018-04-18T11:58:32Z</time>
      </trkpt>
      <trkpt lat="47.26026" lon="1.65196">
        <ele>81</ele>
        <time>2018-04-18T11:58:47Z</time>
      </trkpt>
      <trkpt lat="47.26066" lon="1.65135">
        <ele>82</ele>
        <time>2018-04-18T11:59:05Z</time>
      </trkpt>
      <trkpt lat="47.26068" lon="1.65132">
        <ele>82</ele>
        <time>2018-04-18T11:59:06Z</time>
      </trkpt>
      <trkpt lat="47.26081" lon="1.65105">
        <ele>83</ele>
        <time>2018-04-18T11:59:17Z</time>
      </trkpt>
      <trkpt lat="47.26091" lon="1.65067">
        <ele>83</ele>
        <time>2018-04-18T11:59:27Z</time>
      </trkpt>
      <trkpt lat="47.26092" lon="1.65065">
        <ele>83</ele>
        <time>2018-04-18T11:59:28Z</time>
      </trkpt>
      <trkpt lat="47.26111" lon="1.65013">
        <ele>82</ele>
        <time>2018-04-18T11:59:41Z</time>
      </trkpt>
      <trkpt lat="47.26118" lon="1.64985">
        <ele>80</ele>
        <time>2018-04-18T11:59:48Z</time>
      </trkpt>
      <trkpt lat="47.26113" lon="1.64971">
        <ele>80</ele>
        <time>2018-04-18T11:59:55Z</time>
      </trkpt>
    </trkseg>
  </trk>
</gpx>